createdAt,value
2023-02-16T00:00:16.661Z,4.31
2023-02-16T00:02:44.267Z,4.28
2023-02-16T00:05:24.192Z,4.27
2023-02-16T00:07:52.674Z,4.22
2023-02-16T00:10:22.020Z,4.22
2023-02-16T00:13:07.548Z,4.21
2023-02-16T00:15:36.302Z,4.20
2023-02-16T00:18:05.934Z,4.24
2023-02-16T00:20:33.503Z,4.20
2023-02-16T00:23:01.087Z,4.16
2023-02-16T00:25:29.959Z,4.17
2023-02-16T00:27:57.542Z,4.20
2023-02-16T00:30:25.719Z,4.22
2023-02-16T00:32:53.603Z,4.15
2023-02-16T00:35:23.668Z,4.10
2023-02-16T00:37:51.222Z,4.06
2023-02-16T00:40:19.417Z,4.04
2023-02-16T00:42:48.623Z,4.05
2023-02-16T00:45:19.839Z,4.02
2023-02-16T00:47:50.239Z,4.06
2023-02-16T00:50:20.232Z,4.05
2023-02-16T00:52:48.648Z,4.01
2023-02-16T00:55:18.182Z,3.98
2023-02-16T00:57:49.501Z,3.96
2023-02-16T01:00:21.954Z,3.93
2023-02-16T01:02:53.605Z,3.86
2023-02-16T01:05:22.655Z,3.80
2023-02-16T01:08:10.987Z,3.73
2023-02-16T01:10:58.238Z,3.66
2023-02-16T01:13:29.803Z,3.60
2023-02-16T01:15:57.924Z,3.44
2023-02-16T01:18:26.597Z,3.34
2023-02-16T01:20:54.688Z,3.33
2023-02-16T01:23:22.775Z,3.22
2023-02-16T01:25:50.314Z,3.07
2023-02-16T01:28:22.227Z,2.94
2023-02-16T01:30:52.294Z,2.88
2023-02-16T01:33:20.592Z,2.85
2023-02-16T01:35:48.814Z,2.86
2023-02-16T01:38:19.562Z,2.83
2023-02-16T01:40:56.406Z,2.80
2023-02-16T01:43:27.708Z,2.76
2023-02-16T01:46:02.865Z,2.73
2023-02-16T01:48:32.535Z,2.68
2023-02-16T01:51:06.170Z,2.68
2023-02-16T01:53:38.858Z,2.65
2023-02-16T01:56:18.608Z,2.58
2023-02-16T01:58:50.623Z,2.59
2023-02-16T02:01:38.740Z,2.57
2023-02-16T02:04:36.518Z,2.53
2023-02-16T02:07:06.667Z,2.50
2023-02-16T02:09:42.594Z,2.48
2023-02-16T02:12:19.355Z,2.44
2023-02-16T02:14:50.622Z,2.40
2023-02-16T02:17:21.150Z,2.35
2023-02-16T02:20:00.096Z,2.36
2023-02-16T02:23:16.259Z,2.35
2023-02-16T02:26:23.399Z,2.22
2023-02-16T02:29:02.615Z,2.15
2023-02-16T02:31:46.859Z,2.05
2023-02-16T02:34:27.527Z,2.00
2023-02-16T02:37:12.692Z,1.96
2023-02-16T02:39:48.001Z,1.94
2023-02-16T02:42:24.235Z,1.91
2023-02-16T02:44:58.938Z,1.87
2023-02-16T02:47:38.868Z,1.81
2023-02-16T02:51:07.425Z,1.71
2023-02-16T02:53:40.728Z,1.63
2023-02-16T02:56:37.583Z,1.55
2023-02-16T02:59:26.600Z,1.51
2023-02-16T03:02:01.539Z,1.49
2023-02-16T03:04:32.930Z,1.46
2023-02-16T03:07:04.120Z,1.41
2023-02-16T03:09:32.663Z,1.39
2023-02-16T03:12:18.994Z,1.38
2023-02-16T03:14:53.595Z,1.38
2023-02-16T03:17:44.208Z,1.27
2023-02-16T03:20:34.338Z,1.23
2023-02-16T03:23:21.584Z,1.22
2023-02-16T03:26:10.658Z,1.18
2023-02-16T03:29:00.302Z,1.17
2023-02-16T03:31:31.972Z,1.16
2023-02-16T03:34:01.688Z,1.17
2023-02-16T03:36:32.799Z,1.14
2023-02-16T03:39:06.541Z,1.12
2023-02-16T03:41:38.881Z,1.11
2023-02-16T03:44:06.647Z,1.11
2023-02-16T03:46:35.726Z,1.11
2023-02-16T03:49:04.986Z,1.10
2023-02-16T03:51:33.067Z,1.09
2023-02-16T03:54:00.698Z,1.08
2023-02-16T03:56:28.487Z,1.11
2023-02-16T03:58:55.972Z,1.09
2023-02-16T04:01:23.647Z,1.07
2023-02-16T04:03:51.587Z,1.04
2023-02-16T04:06:21.649Z,1.01
2023-02-16T04:09:14.580Z,0.97
2023-02-16T04:11:56.071Z,0.97
2023-02-16T04:14:23.595Z,0.97
2023-02-16T04:16:51.104Z,0.98
2023-02-16T04:19:18.834Z,0.98
2023-02-16T04:22:13.287Z,0.99
2023-02-16T04:24:40.857Z,1.08
2023-02-16T04:27:09.365Z,0.96
2023-02-16T04:29:36.982Z,0.92
2023-02-16T04:32:05.719Z,0.93
2023-02-16T04:34:33.653Z,0.91
2023-02-16T04:37:03.616Z,0.90
2023-02-16T04:39:34.640Z,0.90
2023-02-16T04:42:05.198Z,0.91
2023-02-16T04:44:36.370Z,0.91
2023-02-16T04:47:04.643Z,0.89
2023-02-16T04:49:32.158Z,0.92
2023-02-16T04:52:00.850Z,0.92
2023-02-16T04:54:28.549Z,0.94
2023-02-16T04:56:57.477Z,0.94
2023-02-16T04:59:27.602Z,0.94
2023-02-16T05:01:57.342Z,0.94
2023-02-16T05:04:25.226Z,0.97
2023-02-16T05:06:52.763Z,1.00
2023-02-16T05:09:21.787Z,0.97
2023-02-16T05:12:16.778Z,0.97
2023-02-16T05:14:46.617Z,1.00
2023-02-16T05:17:16.669Z,1.00
2023-02-16T05:19:47.601Z,0.96
2023-02-16T05:22:15.714Z,0.95
2023-02-16T05:24:44.739Z,0.96
2023-02-16T05:27:14.962Z,0.95
2023-02-16T05:29:42.470Z,0.94
2023-02-16T05:32:12.445Z,0.95
2023-02-16T05:34:39.975Z,0.97
2023-02-16T05:37:07.596Z,1.00
2023-02-16T05:39:35.149Z,1.00
2023-02-16T05:42:03.037Z,0.97
2023-02-16T05:44:30.738Z,0.96
2023-02-16T05:46:58.435Z,0.97
2023-02-16T05:49:27.458Z,1.07
2023-02-16T05:51:55.601Z,1.03
2023-02-16T05:54:23.200Z,1.04
2023-02-16T05:56:52.605Z,1.06
2023-02-16T05:59:20.456Z,1.08
2023-02-16T06:01:51.606Z,1.07
2023-02-16T06:04:21.605Z,1.10
2023-02-16T06:06:50.795Z,1.11
2023-02-16T06:09:18.706Z,1.13
2023-02-16T06:11:47.483Z,1.17
2023-02-16T06:14:17.444Z,1.17
2023-02-16T06:16:47.199Z,1.23
2023-02-16T06:19:17.669Z,1.16
2023-02-16T06:21:46.032Z,1.12
2023-02-16T06:24:16.598Z,1.09
2023-02-16T06:26:44.120Z,1.09
2023-02-16T06:29:12.073Z,1.13
2023-02-16T06:31:41.708Z,1.11
2023-02-16T06:34:10.600Z,1.11
2023-02-16T06:36:40.642Z,1.13
2023-02-16T06:39:09.598Z,1.23
2023-02-16T06:41:41.601Z,1.18
2023-02-16T06:44:13.442Z,1.17
2023-02-16T06:46:42.119Z,1.15
2023-02-16T06:49:12.767Z,1.25
2023-02-16T06:51:40.630Z,1.26
2023-02-16T06:54:12.753Z,1.24
2023-02-16T06:56:45.415Z,1.21
2023-02-16T06:59:13.384Z,1.25
2023-02-16T07:01:44.929Z,1.29
2023-02-16T07:04:14.678Z,1.32
2023-02-16T07:06:44.654Z,1.40
2023-02-16T07:09:13.167Z,1.42
2023-02-16T07:11:40.885Z,1.45
2023-02-16T07:14:11.608Z,1.52
2023-02-16T07:16:40.165Z,1.73
2023-02-16T07:19:08.111Z,1.70
2023-02-16T07:21:35.859Z,1.70
2023-02-16T07:24:03.664Z,1.74
2023-02-16T07:26:32.112Z,1.83
2023-02-16T07:28:59.829Z,1.86
2023-02-16T07:31:28.811Z,1.90
2023-02-16T07:33:56.655Z,1.95
2023-02-16T07:36:25.139Z,2.02
2023-02-16T07:38:54.871Z,2.10
2023-02-16T07:41:22.677Z,2.17
2023-02-16T07:43:50.271Z,2.24
2023-02-16T07:46:17.806Z,2.30
2023-02-16T07:48:49.712Z,2.52
2023-02-16T07:51:23.336Z,2.65
2023-02-16T07:53:50.995Z,2.68
2023-02-16T07:56:21.204Z,2.70
2023-02-16T07:58:49.668Z,2.73
2023-02-16T08:01:17.379Z,2.77
2023-02-16T08:03:44.921Z,2.89
2023-02-16T08:09:08.170Z,3.14
2023-02-16T08:11:37.605Z,3.23
2023-02-16T08:14:05.676Z,3.33
2023-02-16T08:16:35.620Z,3.47
2023-02-16T08:19:04.644Z,3.54
2023-02-16T08:21:35.288Z,3.62
2023-02-16T08:24:06.079Z,3.71
2023-02-16T08:26:37.802Z,3.87
2023-02-16T08:29:07.605Z,3.99
2023-02-16T08:31:36.538Z,4.04
2023-02-16T08:34:05.911Z,4.13
2023-02-16T08:36:39.902Z,4.20
2023-02-16T08:39:09.790Z,4.29
2023-02-16T08:41:39.252Z,4.36
2023-02-16T08:44:08.738Z,4.43
2023-02-16T08:46:39.131Z,4.52
2023-02-16T08:49:09.628Z,4.59
2023-02-16T08:51:44.704Z,4.68
2023-02-16T08:54:17.622Z,4.77
2023-02-16T08:56:49.608Z,4.85
2023-02-16T08:59:21.370Z,4.92
2023-02-16T09:01:49.562Z,5.01
2023-02-16T09:04:19.682Z,5.14
2023-02-16T09:06:49.334Z,5.24
2023-02-16T09:09:17.198Z,5.40
2023-02-16T09:11:45.597Z,5.53
2023-02-16T09:14:14.026Z,5.74
2023-02-16T09:16:46.500Z,5.86
2023-02-16T09:19:17.836Z,5.96
2023-02-16T09:21:46.724Z,6.05
2023-02-16T09:24:15.904Z,6.12
2023-02-16T09:26:44.500Z,6.22
2023-02-16T09:29:13.950Z,6.31
2023-02-16T09:31:42.115Z,6.39
2023-02-16T09:34:17.285Z,6.46
2023-02-16T09:36:45.921Z,6.51
2023-02-16T09:39:16.392Z,6.55
2023-02-16T09:42:03.336Z,6.64
2023-02-16T09:44:42.484Z,6.69
2023-02-16T09:47:17.661Z,6.75
2023-02-16T09:49:48.596Z,6.83
2023-02-16T09:52:26.582Z,6.91
2023-02-16T09:54:58.201Z,6.98
2023-02-16T09:57:41.979Z,7.09
2023-02-16T10:00:22.100Z,7.20
2023-02-16T10:02:57.249Z,7.31
2023-02-16T10:05:30.178Z,7.42
2023-02-16T10:08:05.920Z,7.57
2023-02-16T10:10:48.796Z,7.65
2023-02-16T10:13:25.948Z,7.79
2023-02-16T10:15:57.675Z,7.89
2023-02-16T10:18:52.888Z,8.06
2023-02-16T10:21:26.785Z,8.16
2023-02-16T10:23:59.957Z,8.22
2023-02-16T10:26:35.144Z,8.37
2023-02-16T10:29:08.283Z,8.46
2023-02-16T10:31:40.485Z,8.50
2023-02-16T10:34:24.301Z,8.60
2023-02-16T10:37:17.605Z,8.64
2023-02-16T10:39:55.648Z,8.67
2023-02-16T10:42:34.926Z,8.74
2023-02-16T10:45:16.595Z,8.74
2023-02-16T10:47:46.988Z,8.84
2023-02-16T10:50:22.598Z,8.86
2023-02-16T10:52:51.674Z,8.87
2023-02-16T10:55:19.222Z,8.87
2023-02-16T10:57:56.601Z,8.87
2023-02-16T11:00:35.070Z,8.88
2023-02-16T11:03:04.605Z,8.94
2023-02-16T11:05:37.928Z,8.88
2023-02-16T11:08:11.619Z,8.93
2023-02-16T11:10:45.973Z,8.98
2023-02-16T11:13:31.338Z,9.00
2023-02-16T11:16:04.681Z,8.98
2023-02-16T11:18:37.798Z,9.05
2023-02-16T11:21:07.536Z,9.05
2023-02-16T11:23:38.150Z,9.11
2023-02-16T11:26:08.759Z,9.15
2023-02-16T11:28:42.012Z,9.16
2023-02-16T11:31:19.787Z,9.26
2023-02-16T11:33:58.772Z,9.28
2023-02-16T11:36:33.005Z,9.34
2023-02-16T11:39:05.755Z,9.37
2023-02-16T11:41:35.304Z,9.42
2023-02-16T11:44:05.315Z,9.46
2023-02-16T11:46:40.672Z,9.53
2023-02-16T11:49:31.636Z,9.56
2023-02-16T11:51:59.909Z,9.63
2023-02-16T11:54:28.434Z,9.73
2023-02-16T11:57:04.214Z,9.76
2023-02-16T11:59:38.601Z,9.79
2023-02-16T12:02:36.607Z,9.82
2023-02-16T12:05:22.672Z,9.85
2023-02-16T12:08:06.390Z,10.01
2023-02-16T12:10:41.645Z,10.01
2023-02-16T12:13:18.905Z,10.08
2023-02-16T12:15:53.683Z,10.14
2023-02-16T12:18:31.300Z,10.15
2023-02-16T12:21:10.490Z,10.13
2023-02-16T12:23:42.628Z,10.18
2023-02-16T12:26:34.842Z,10.12
2023-02-16T12:29:08.600Z,10.18
2023-02-16T12:31:54.744Z,10.11
2023-02-16T12:34:29.753Z,10.09
2023-02-16T12:37:05.174Z,10.13
2023-02-16T12:39:42.233Z,10.11
2023-02-16T12:42:26.676Z,10.13
2023-02-16T12:44:59.147Z,10.17
2023-02-16T12:47:33.175Z,10.12
2023-02-16T12:50:04.598Z,10.12
2023-02-16T12:52:40.094Z,10.13
2023-02-16T12:55:21.610Z,10.09
2023-02-16T12:57:55.692Z,10.06
2023-02-16T13:00:31.196Z,10.02
2023-02-16T13:03:12.193Z,10.00
2023-02-16T13:05:40.680Z,9.99
2023-02-16T13:08:16.701Z,10.08
2023-02-16T13:10:56.243Z,10.01
2023-02-16T13:13:28.078Z,10.02
2023-02-16T13:16:00.838Z,9.96
2023-02-16T13:18:33.378Z,9.94
2023-02-16T13:21:09.266Z,9.90
2023-02-16T13:23:48.635Z,9.87
2023-02-16T13:26:38.482Z,9.79
2023-02-16T13:29:29.009Z,9.81
2023-02-16T13:32:09.826Z,9.78
2023-02-16T13:34:54.486Z,9.78
2023-02-16T13:37:40.846Z,9.78
2023-02-16T13:40:44.613Z,9.78
2023-02-16T13:43:30.403Z,9.77
2023-02-16T13:46:01.820Z,9.79
2023-02-16T13:48:33.612Z,9.83
2023-02-16T13:51:05.202Z,9.83
2023-02-16T13:53:38.443Z,9.83
2023-02-16T13:56:32.188Z,9.80
2023-02-16T13:59:10.430Z,9.77
2023-02-16T14:01:41.819Z,9.79
2023-02-16T14:04:14.728Z,9.77
2023-02-16T14:06:43.743Z,9.82
2023-02-16T14:09:34.635Z,9.83
2023-02-16T14:12:16.326Z,9.78
2023-02-16T14:14:57.061Z,9.77
2023-02-16T14:17:30.553Z,9.74
2023-02-16T14:19:59.669Z,9.76
2023-02-16T14:22:35.822Z,9.71
2023-02-16T14:25:07.579Z,9.75
2023-02-16T14:27:45.410Z,9.81
2023-02-16T14:30:22.200Z,9.74
2023-02-16T14:32:53.856Z,9.73
2023-02-16T14:35:25.678Z,9.78
2023-02-16T14:37:58.872Z,9.73
2023-02-16T14:40:48.417Z,9.75
2023-02-16T14:43:25.311Z,9.77
2023-02-16T14:46:30.676Z,9.71
2023-02-16T14:49:39.384Z,9.72
2023-02-16T14:52:39.828Z,9.66
2023-02-16T14:55:36.629Z,9.68
2023-02-16T14:58:28.084Z,9.72
2023-02-16T15:01:04.621Z,9.69
2023-02-16T15:03:41.656Z,9.63
2023-02-16T15:06:19.655Z,9.62
2023-02-16T15:08:56.996Z,9.64
2023-02-16T15:11:32.609Z,9.65
2023-02-16T15:14:08.042Z,9.66
2023-02-16T15:16:39.135Z,9.69
2023-02-16T15:19:13.171Z,9.77
2023-02-16T15:21:41.100Z,9.68
2023-02-16T15:24:22.966Z,9.68
2023-02-16T15:27:01.428Z,9.69
2023-02-16T15:29:30.274Z,9.68
2023-02-16T15:32:00.392Z,9.69
2023-02-16T15:34:33.139Z,9.63
2023-02-16T15:37:02.625Z,9.61
2023-02-16T15:39:45.203Z,9.58
2023-02-16T15:42:27.703Z,9.54
2023-02-16T15:44:56.980Z,9.51
2023-02-16T15:47:26.182Z,9.48
2023-02-16T15:49:54.671Z,9.45
2023-02-16T15:52:29.734Z,9.44
2023-02-16T15:54:58.343Z,9.47
2023-02-16T15:57:31.917Z,9.42
2023-02-16T16:00:03.963Z,9.40
2023-02-16T16:02:43.680Z,9.40
2023-02-16T16:05:23.406Z,9.36
2023-02-16T16:07:51.260Z,9.33
2023-02-16T16:10:24.911Z,9.39
2023-02-16T16:12:59.673Z,9.36
2023-02-16T16:15:31.168Z,9.31
2023-02-16T16:18:02.470Z,9.35
2023-02-16T16:20:38.649Z,9.31
2023-02-16T16:23:22.255Z,9.33
2023-02-16T16:25:51.547Z,9.32
2023-02-16T16:28:37.851Z,9.29
2023-02-16T16:31:10.881Z,9.30
2023-02-16T16:33:55.653Z,9.33
2023-02-16T16:36:33.711Z,9.28
2023-02-16T16:39:27.246Z,9.29
2023-02-16T16:42:22.618Z,9.29
2023-02-16T16:44:59.050Z,9.28
2023-02-16T16:47:30.484Z,9.27
2023-02-16T16:50:01.062Z,9.27
2023-02-16T16:52:42.643Z,9.26
2023-02-16T16:55:26.085Z,9.30
2023-02-16T16:57:59.160Z,9.27
2023-02-16T17:00:33.959Z,9.23
2023-02-16T17:03:02.449Z,9.26
2023-02-16T17:05:30.230Z,9.21
2023-02-16T17:07:57.892Z,9.24
2023-02-16T17:10:25.810Z,9.20
2023-02-16T17:12:57.627Z,9.21
2023-02-16T17:15:34.556Z,9.20
2023-02-16T17:18:04.645Z,9.22
2023-02-16T17:20:34.615Z,9.20
2023-02-16T17:23:04.702Z,9.13
2023-02-16T17:25:34.138Z,9.12
2023-02-16T17:28:01.726Z,9.12
2023-02-16T17:30:30.715Z,9.12
2023-02-16T17:32:58.394Z,9.13
2023-02-16T17:35:27.596Z,9.12
2023-02-16T17:37:57.634Z,9.16
2023-02-16T17:40:26.206Z,9.16
2023-02-16T17:42:54.704Z,9.13
2023-02-16T17:45:23.374Z,9.15
2023-02-16T17:47:54.611Z,9.10
2023-02-16T17:50:23.039Z,9.16
2023-02-16T17:52:56.964Z,9.13
2023-02-16T17:55:24.694Z,9.11
2023-02-16T17:57:52.515Z,9.16
2023-02-16T18:00:22.430Z,9.19
2023-02-16T18:02:51.797Z,9.23
2023-02-16T18:05:19.364Z,9.20
2023-02-16T18:07:46.894Z,9.21
2023-02-16T18:10:30.739Z,9.26
2023-02-16T18:12:58.290Z,9.23
2023-02-16T18:15:25.781Z,9.23
2023-02-16T18:17:55.500Z,9.32
2023-02-16T18:20:25.615Z,9.34
2023-02-16T18:22:53.503Z,9.41
2023-02-16T18:25:21.554Z,9.47
2023-02-16T18:27:50.681Z,9.48
2023-02-16T18:30:18.269Z,9.54
2023-02-16T18:32:46.448Z,9.62
2023-02-16T18:35:17.051Z,9.62
2023-02-16T18:37:45.678Z,9.61
2023-02-16T18:40:16.567Z,9.69
2023-02-16T18:42:44.999Z,9.69
2023-02-16T18:45:13.235Z,9.71
2023-02-16T18:47:40.982Z,9.74
2023-02-16T18:50:09.444Z,9.83
2023-02-16T18:52:38.396Z,9.79
2023-02-16T18:55:06.639Z,9.83
2023-02-16T18:57:35.639Z,9.85
2023-02-16T19:00:05.645Z,9.95
2023-02-16T19:02:33.224Z,9.96
2023-02-16T19:05:01.320Z,9.87
2023-02-16T19:07:28.945Z,9.86
2023-02-16T19:09:57.791Z,9.92
2023-02-16T19:12:25.622Z,9.91
2023-02-16T19:14:53.142Z,9.90
2023-02-16T19:17:20.821Z,9.93
2023-02-16T19:19:48.689Z,9.98
2023-02-16T19:22:17.075Z,9.99
2023-02-16T19:24:44.602Z,9.99
2023-02-16T19:27:13.703Z,10.26
2023-02-16T19:29:41.945Z,10.18
2023-02-16T19:32:09.501Z,10.15
2023-02-16T19:34:37.711Z,10.24
2023-02-16T19:37:05.216Z,10.31
2023-02-16T19:39:32.963Z,10.25
2023-02-16T19:42:00.632Z,10.23
2023-02-16T19:44:30.483Z,10.28
2023-02-16T19:46:57.957Z,10.29
2023-02-16T19:49:25.449Z,10.34
2023-02-16T19:51:55.746Z,10.28
2023-02-16T19:54:25.048Z,10.25
2023-02-16T19:56:54.018Z,10.24
2023-02-16T19:59:22.781Z,10.28
2023-02-16T20:01:55.372Z,10.23
2023-02-16T20:04:23.206Z,10.19
2023-02-16T20:06:54.230Z,10.14
2023-02-16T20:09:22.808Z,10.14
2023-02-16T20:11:52.823Z,10.15
2023-02-16T20:14:20.635Z,10.23
2023-02-16T20:16:49.990Z,9.98
2023-02-16T20:19:19.458Z,9.99
2023-02-16T20:21:47.657Z,9.97
2023-02-16T20:24:17.962Z,9.97
2023-02-16T20:26:48.886Z,10.10
2023-02-16T20:29:17.038Z,10.04
2023-02-16T20:31:49.561Z,10.00
2023-02-16T20:34:19.069Z,9.88
2023-02-16T20:36:46.612Z,9.89
2023-02-16T20:39:14.181Z,9.82
2023-02-16T20:41:41.773Z,9.82
2023-02-16T20:44:09.302Z,9.70
2023-02-16T20:46:38.260Z,9.68
2023-02-16T20:49:06.693Z,9.65
2023-02-16T20:51:36.506Z,9.65
2023-02-16T20:54:04.937Z,9.63
2023-02-16T20:56:32.639Z,9.61
2023-02-16T20:59:01.314Z,9.53
2023-02-16T21:01:31.369Z,9.48
2023-02-16T21:04:00.810Z,9.57
2023-02-16T21:06:28.922Z,9.51
2023-02-16T21:08:58.284Z,9.51
2023-02-16T21:11:26.436Z,9.49
2023-02-16T21:13:54.781Z,9.47
2023-02-16T21:16:22.746Z,9.43
2023-02-16T21:18:50.799Z,9.42
2023-02-16T21:21:18.979Z,9.44
2023-02-16T21:23:48.279Z,9.39
2023-02-16T21:26:18.526Z,9.39
2023-02-16T21:28:47.631Z,9.38
2023-02-16T21:31:17.681Z,9.36
2023-02-16T21:33:46.155Z,9.31
2023-02-16T21:36:18.366Z,9.28
2023-02-16T21:38:46.631Z,9.30
2023-02-16T21:41:26.705Z,9.24
2023-02-16T21:43:55.973Z,9.29
2023-02-16T21:46:23.972Z,9.23
2023-02-16T21:48:51.101Z,9.31
2023-02-16T21:51:21.112Z,9.21
2023-02-16T21:53:49.700Z,9.19
2023-02-16T21:56:27.560Z,9.20
2023-02-16T21:58:55.216Z,9.21
2023-02-16T22:01:24.762Z,9.20
2023-02-16T22:03:56.693Z,9.21
2023-02-16T22:06:25.364Z,9.15
2023-02-16T22:08:53.417Z,9.16
2023-02-16T22:11:22.179Z,9.24
2023-02-16T22:13:55.390Z,9.17
2023-02-16T22:16:23.736Z,9.18
2023-02-16T22:18:51.391Z,9.16
2023-02-16T22:21:18.997Z,9.25
2023-02-16T22:23:46.557Z,9.25
2023-02-16T22:26:25.330Z,9.23
2023-02-16T22:28:55.976Z,9.22
2023-02-16T22:31:24.900Z,9.13
2023-02-16T22:33:57.043Z,9.13
2023-02-16T22:36:25.257Z,9.21
2023-02-16T22:38:55.177Z,9.20
2023-02-16T22:41:24.163Z,9.30
2023-02-16T22:43:59.079Z,9.21
2023-02-16T22:46:28.689Z,9.19
2023-02-16T22:48:58.252Z,9.18
2023-02-16T22:51:27.616Z,9.22
2023-02-16T22:53:55.178Z,9.22
2023-02-16T22:56:23.630Z,9.21
2023-02-16T22:58:51.130Z,9.20
2023-02-16T23:01:21.919Z,9.20
2023-02-16T23:03:53.288Z,9.28
2023-02-16T23:06:23.633Z,9.25
2023-02-16T23:08:53.736Z,9.22
2023-02-16T23:11:21.514Z,9.23
2023-02-16T23:13:53.035Z,9.23
2023-02-16T23:16:23.737Z,9.26
2023-02-16T23:18:56.643Z,9.26
2023-02-16T23:21:27.238Z,9.27
2023-02-16T23:23:55.929Z,9.23
2023-02-16T23:26:28.662Z,9.26
2023-02-16T23:28:58.665Z,9.29
2023-02-16T23:31:32.792Z,9.34
2023-02-16T23:34:02.258Z,9.35
2023-02-16T23:36:30.372Z,9.33
2023-02-16T23:39:00.330Z,9.33
2023-02-16T23:41:28.649Z,9.38
2023-02-16T23:43:56.513Z,9.36
2023-02-16T23:46:24.765Z,9.37
2023-02-16T23:48:53.890Z,9.40
2023-02-16T23:51:21.388Z,9.47
2023-02-16T23:53:49.290Z,9.39
2023-02-16T23:56:26.938Z,9.40
2023-02-16T23:58:58.641Z,9.42
